ADDS TAF Board INFO
 
 

IDs: Format: Expanded Condensed

KSAN - San Diego Intl Arpt, CA, US

Issued at 0520 UTC 01 Aug 2014
Time0651Z01/08Z01/09Z01/10Z01/11Z01/12Z01/13Z01/14Z01/15Z01/16Z01/17Z01/18Z01/19Z01/20Z
TypeOBSPRVLPRVLPRVLPRVLPRVLPRVLPRVLPRVLPRVLPRVLPRVLPRVLPRVL
Vis10>6>6>6>6>6>6>6>6>6>6>6>6>6
Cig141212121212121212----------
CoverBKNOVCOVCOVCOVCOVCOVCOVCOVCSCTSCTSCTSCTSCT
FltCatMVFRMVFRMVFRMVFRMVFRMVFRMVFRMVFRMVFRVFRVFRVFRVFRVFR
Wx----------------------------
WDir270VRBVRBVRBVRBVRBVRBVRBVRBVRBVRBVRBVRB270
WSpd33333333344449
WGst----------------------------
R09/27
XWnd-1VRBVRBVRBVRBVRBVRBVRBVRBVRBVRBVRBVRB-2
HWnd-3VRBVRBVRBVRBVRBVRBVRBVRBVRBVRBVRBVRB-9
Raw TAF
KSAN 010520Z 0106/0212 VRB03KT P6SM OVC012
  FM011530 VRB04KT P6SM SCT014 SCT200
  FM012000 27009KT P6SM SCT200
  FM020100 VRB05KT P6SM SCT200
  FM020400 VRB05KT P6SM BKN011


Raw METAR
KSAN 010651Z 27003KT 10SM BKN014 BKN200 21/17 A2995 RMK AO2 SLP140 T02110172

TAF Board Legend

Hazard Green Yellow Red Magenta
Visibility (sm) >5 >2.99 >0.99 <=0.99
Ceiling (100 ft) >30 >9.99 >4.99 <=4.99
Wind Speed (kt) <10 <20 <30 >=30
Wind Gust (kt) <10 <20 <30 >=30
Weather No Wx Reported Light precipitation Moderate precipitation Heavy precipitation
Flight Category VFR MVFR IFR LIFR

Page loaded:  07:47 UTC  |   12:47 AM Pacific  |   01:47 AM Mountain  |   02:47 AM Central  |   03:47 AM Eastern

 

ADVISORIES

FORECASTS

FORECASTS

OBSERVATIONS

USER TOOLS

ABOUT US